Main page
METAR-TAF:

METAR-TAF

Airports :

Kangra Airport

Dharamsala, India

latitude: 32-09-54N, longitude: 76-15-48E, elevation: 770 m

METAR: missing

Time: 02:58 (21:28 UTC)

Forecast

The report was made 16 hours and 28 minutes ago, at 05:00 UTC
Forecast valid from 05 at 06 UTC to 05 at 15 UTC
Wind 5 kt from the Southeast
Visibility: 5000 m
Scattered clouds at a height of 3000 ft
haze, light rain
Temporary
from 05 at 09 UTC to 05 at 12 UTC
Visibility: 3000 m
Few clouds at a height of 3500 ft, Cumulonimbus.
Overcast at a height of 6000 ft
thunderstorm, light rain

TAF: VIGG 050500Z 0506/0515 14005KT 5000 HZ -RA SCT030 TEMPO 0509/0512 3000 -TSRA FEW035CB OVC060

Weather observations and forecasts of more than 4000 airports (METAR and TAF reports).

The available stations are represented by yellow and red dots on the map.

Hover mouse over dot to see the name of the station.

Then click to see weather observations and forecasts.

To change the map : click on the green buttons with a black cross to zoom in, on the green button with a dash to zoom out, or on the green arrows for adjacent maps.


METAR-TAF: